createdAt,value
2022-11-10T00:00:38.449Z,10.40
2022-11-10T00:03:08.195Z,10.25
2022-11-10T00:05:38.251Z,8.32
2022-11-10T00:08:07.437Z,7.60
2022-11-10T00:10:57.220Z,8.73
2022-11-10T00:13:27.207Z,8.25
2022-11-10T00:16:13.047Z,10.65
2022-11-10T00:18:41.312Z,7.57
2022-11-10T00:21:10.794Z,8.75
2022-11-10T00:23:39.114Z,9.52
2022-11-10T00:26:14.771Z,10.38
2022-11-10T00:28:43.119Z,10.20
2022-11-10T00:31:11.628Z,10.23
2022-11-10T00:33:41.078Z,10.38
2022-11-10T00:36:09.896Z,10.02
2022-11-10T00:38:38.148Z,10.52
2022-11-10T00:41:06.617Z,10.57
2022-11-10T00:43:36.399Z,6.78
2022-11-10T00:46:04.673Z,8.80
2022-11-10T00:48:32.910Z,7.07
2022-11-10T00:51:01.455Z,9.73
2022-11-10T00:53:29.617Z,11.07
2022-11-10T00:55:57.779Z,7.30
2022-11-10T00:58:26.084Z,9.90
2022-11-10T01:01:02.218Z,10.13
2022-11-10T01:03:30.731Z,8.60
2022-11-10T01:05:59.115Z,10.70
2022-11-10T01:08:27.259Z,10.45
2022-11-10T01:11:02.985Z,10.23
2022-11-10T01:13:31.193Z,9.98
2022-11-10T01:16:05.389Z,9.35
2022-11-10T01:18:33.822Z,8.25
2022-11-10T01:21:02.059Z,10.55
2022-11-10T01:23:30.475Z,10.43
2022-11-10T01:25:59.052Z,11.00
2022-11-10T01:28:27.207Z,10.40
2022-11-10T01:31:00.284Z,10.57
2022-11-10T01:33:28.965Z,8.85
2022-11-10T01:35:57.533Z,9.70
2022-11-10T01:38:28.358Z,10.32
2022-11-10T01:40:56.869Z,11.10
2022-11-10T01:43:25.574Z,11.45
2022-11-10T01:45:54.528Z,11.70
2022-11-10T01:48:31.567Z,11.15
2022-11-10T01:51:01.937Z,9.48
2022-11-10T01:53:32.315Z,8.98
2022-11-10T01:56:01.555Z,8.00
2022-11-10T01:58:32.978Z,10.73
2022-11-10T02:01:01.232Z,9.82
2022-11-10T02:03:35.007Z,10.32
2022-11-10T02:06:03.675Z,9.50
2022-11-10T02:08:33.391Z,11.05
2022-11-10T02:11:01.666Z,11.40
2022-11-10T02:13:30.053Z,9.00
2022-11-10T02:15:58.187Z,10.98
2022-11-10T02:18:26.516Z,10.88
2022-11-10T02:20:56.379Z,8.52
2022-11-10T02:23:49.025Z,11.18
2022-11-10T02:26:20.901Z,10.50
2022-11-10T02:28:49.146Z,11.85
2022-11-10T02:31:17.324Z,10.50
2022-11-10T02:33:45.560Z,10.23
2022-11-10T02:36:15.948Z,11.65
2022-11-10T02:38:44.207Z,12.02
2022-11-10T02:41:12.435Z,10.88
2022-11-10T02:43:41.169Z,10.98
2022-11-10T02:46:09.421Z,10.70
2022-11-10T02:48:37.691Z,11.50
2022-11-10T02:51:06.108Z,9.48
2022-11-10T02:53:35.737Z,11.20
2022-11-10T02:56:03.956Z,12.00
2022-11-10T02:58:32.166Z,10.90
2022-11-10T03:01:00.367Z,9.82
2022-11-10T03:03:28.609Z,10.57
2022-11-10T03:05:56.857Z,10.23
2022-11-10T03:08:26.815Z,10.38
2022-11-10T03:10:57.000Z,11.88
2022-11-10T03:13:32.115Z,10.75
2022-11-10T03:16:08.892Z,8.75
2022-11-10T03:18:37.137Z,9.88
2022-11-10T03:21:05.430Z,9.43
2022-11-10T03:23:34.539Z,11.43
2022-11-10T03:26:07.272Z,10.88
2022-11-10T03:28:35.681Z,10.85
2022-11-10T03:31:03.902Z,11.73
2022-11-10T03:33:32.069Z,9.50
2022-11-10T03:36:00.506Z,10.65
2022-11-10T03:38:28.888Z,11.52
2022-11-10T03:41:18.030Z,11.13
2022-11-10T03:43:46.987Z,10.73
2022-11-10T03:46:15.261Z,10.60
2022-11-10T03:48:45.359Z,10.30
2022-11-10T03:51:17.299Z,11.80
2022-11-10T03:53:45.552Z,10.90
2022-11-10T03:56:13.895Z,6.63
2022-11-10T03:58:42.514Z,11.98
2022-11-10T04:01:12.288Z,12.32
2022-11-10T04:03:40.482Z,9.95
2022-11-10T04:06:27.389Z,11.70
2022-11-10T04:09:01.741Z,9.48
2022-11-10T04:11:48.936Z,11.20
2022-11-10T04:14:34.349Z,8.35
2022-11-10T04:17:04.547Z,7.90
2022-11-10T04:19:32.789Z,7.35
2022-11-10T04:22:00.918Z,10.40
2022-11-10T04:24:29.281Z,10.85
2022-11-10T04:26:57.452Z,10.85
2022-11-10T04:29:25.599Z,8.15
2022-11-10T04:31:53.965Z,11.07
2022-11-10T04:34:23.533Z,9.32
2022-11-10T04:36:51.672Z,8.95
2022-11-10T04:39:20.539Z,8.57
2022-11-10T04:41:48.895Z,11.52
2022-11-10T04:44:17.146Z,11.35
2022-11-10T04:46:45.687Z,11.10
2022-11-10T04:49:13.832Z,11.35
2022-11-10T04:51:43.465Z,9.98
2022-11-10T04:54:12.901Z,3.53
2022-11-10T04:56:41.564Z,10.38
2022-11-10T04:59:09.944Z,10.60
2022-11-10T05:01:38.243Z,10.73
2022-11-10T05:04:06.795Z,11.38
2022-11-10T05:06:35.070Z,9.25
2022-11-10T05:09:04.935Z,8.35
2022-11-10T05:11:33.486Z,9.80
2022-11-10T05:14:01.735Z,10.27
2022-11-10T05:16:30.006Z,10.32
2022-11-10T05:18:58.442Z,10.35
2022-11-10T05:21:26.680Z,8.93
2022-11-10T05:23:54.975Z,8.77
2022-11-10T05:26:24.575Z,10.52
2022-11-10T05:28:52.931Z,9.70
2022-11-10T05:31:21.348Z,10.02
2022-11-10T05:33:49.515Z,8.77
2022-11-10T05:36:17.827Z,5.53
2022-11-10T05:38:46.149Z,8.80
2022-11-10T05:41:14.305Z,7.13
2022-11-10T05:43:44.340Z,7.25
2022-11-10T05:46:12.574Z,10.18
2022-11-10T05:48:40.718Z,8.05
2022-11-10T05:51:08.923Z,8.57
2022-11-10T05:53:37.202Z,7.60
2022-11-10T05:56:05.760Z,9.02
2022-11-10T05:58:34.448Z,9.43
2022-11-10T06:01:04.321Z,9.95
2022-11-10T06:03:32.710Z,8.13
2022-11-10T06:06:01.022Z,9.77
2022-11-10T06:08:29.445Z,8.40
2022-11-10T06:10:57.602Z,9.60
2022-11-10T06:13:25.979Z,8.25
2022-11-10T06:15:54.663Z,8.32
2022-11-10T06:18:24.328Z,10.32
2022-11-10T06:20:52.624Z,5.90
2022-11-10T06:23:21.465Z,9.02
2022-11-10T06:25:49.844Z,6.05
2022-11-10T06:28:18.148Z,7.75
2022-11-10T06:30:46.404Z,8.38
2022-11-10T06:33:14.695Z,8.77
2022-11-10T06:35:44.695Z,9.20
2022-11-10T06:38:13.450Z,10.13
2022-11-10T06:40:41.657Z,8.52
2022-11-10T06:43:09.958Z,9.73
2022-11-10T06:45:38.225Z,8.48
2022-11-10T06:48:08.644Z,10.00
2022-11-10T06:50:36.885Z,10.35
2022-11-10T06:53:06.701Z,8.35
2022-11-10T06:55:34.918Z,7.78
2022-11-10T06:58:03.169Z,7.32
2022-11-10T07:00:31.603Z,7.70
2022-11-10T07:03:01.209Z,7.65
2022-11-10T07:05:29.588Z,5.60
2022-11-10T07:07:57.974Z,8.57
2022-11-10T07:10:27.683Z,8.07
2022-11-10T07:12:59.496Z,8.85
2022-11-10T07:15:27.800Z,9.65
2022-11-10T07:17:55.960Z,8.63
2022-11-10T07:20:26.239Z,9.50
2022-11-10T07:22:58.642Z,6.53
2022-11-10T07:25:29.070Z,11.87
2022-11-10T07:27:57.392Z,9.82
2022-11-10T07:30:26.731Z,9.45
2022-11-10T07:33:02.266Z,6.18
2022-11-10T07:35:31.997Z,11.40
2022-11-10T07:38:03.152Z,5.70
2022-11-10T07:40:32.918Z,7.57
2022-11-10T07:43:01.407Z,9.50
2022-11-10T07:45:29.964Z,10.18
2022-11-10T07:48:01.564Z,9.50
2022-11-10T07:50:30.565Z,9.20
2022-11-10T07:53:06.333Z,9.85
2022-11-10T07:55:36.268Z,9.13
2022-11-10T07:58:04.735Z,9.68
2022-11-10T08:00:33.295Z,5.85
2022-11-10T08:03:05.951Z,8.48
2022-11-10T08:05:35.005Z,7.78
2022-11-10T08:08:03.257Z,8.50
2022-11-10T08:10:32.096Z,9.32
2022-11-10T08:13:02.879Z,9.10
2022-11-10T08:15:31.715Z,6.15
2022-11-10T08:18:00.886Z,8.27
2022-11-10T08:20:29.137Z,9.60
2022-11-10T08:23:01.382Z,9.57
2022-11-10T08:25:34.497Z,8.83
2022-11-10T08:28:07.283Z,9.70
2022-11-10T08:30:36.746Z,6.68
2022-11-10T08:33:06.551Z,9.07
2022-11-10T08:35:37.127Z,8.57
2022-11-10T08:38:10.189Z,9.60
2022-11-10T08:40:38.753Z,9.48
2022-11-10T08:43:09.081Z,8.65
2022-11-10T08:45:38.281Z,10.20
2022-11-10T08:48:08.064Z,10.20
2022-11-10T08:50:36.258Z,10.43
2022-11-10T08:53:05.653Z,11.23
2022-11-10T08:55:35.681Z,10.00
2022-11-10T08:58:05.107Z,10.98
2022-11-10T09:00:34.899Z,8.85
2022-11-10T09:03:07.829Z,8.75
2022-11-10T09:05:37.005Z,11.15
2022-11-10T09:08:05.563Z,11.40
2022-11-10T09:10:34.177Z,11.48
2022-11-10T09:13:02.966Z,10.27
2022-11-10T09:15:32.134Z,10.32
2022-11-10T09:18:02.791Z,9.60
2022-11-10T09:20:32.841Z,11.18
2022-11-10T09:23:06.438Z,11.63
2022-11-10T09:25:34.903Z,11.32
2022-11-10T09:28:03.239Z,12.23
2022-11-10T09:30:31.742Z,10.32
2022-11-10T09:33:02.210Z,10.63
2022-11-10T09:35:30.411Z,11.60
2022-11-10T09:37:58.726Z,10.85
2022-11-10T09:40:31.599Z,13.25
2022-11-10T09:43:02.113Z,7.22
2022-11-10T09:45:36.383Z,7.32
2022-11-10T09:48:11.675Z,12.93
2022-11-10T09:50:44.975Z,8.85
2022-11-10T09:55:46.372Z,10.25
2022-11-10T09:58:15.130Z,7.13
2022-11-10T10:00:44.302Z,11.65
2022-11-10T10:03:17.052Z,13.60
2022-11-10T10:05:56.048Z,7.78
2022-11-10T10:08:30.396Z,14.25
2022-11-10T10:11:04.859Z,14.40
2022-11-10T10:13:55.645Z,8.55
2022-11-10T10:16:28.027Z,13.82
2022-11-10T10:19:02.044Z,10.93
2022-11-10T10:21:40.261Z,11.15
2022-11-10T10:24:19.847Z,13.32
2022-11-10T10:26:52.970Z,10.20
2022-11-10T10:29:23.744Z,12.18
2022-11-10T10:31:53.193Z,10.88
2022-11-10T10:34:25.623Z,13.35
2022-11-10T10:36:53.785Z,10.27
2022-11-10T10:39:27.510Z,10.27
2022-11-10T10:41:56.268Z,13.65
2022-11-10T10:44:24.485Z,8.85
2022-11-10T10:46:57.686Z,8.27
2022-11-10T10:49:30.242Z,8.55
2022-11-10T10:52:07.867Z,12.70
2022-11-10T10:54:38.186Z,11.10
2022-11-10T10:57:16.788Z,10.85
2022-11-10T10:59:45.182Z,10.55
2022-11-10T11:02:44.675Z,12.63
2022-11-10T11:05:17.778Z,10.10
2022-11-10T11:07:56.774Z,13.25
2022-11-10T11:10:26.487Z,12.52
2022-11-10T11:12:54.781Z,7.38
2022-11-10T11:15:27.003Z,11.77
2022-11-10T11:17:57.020Z,10.93
2022-11-10T11:20:32.742Z,9.63
2022-11-10T11:23:03.727Z,13.55
2022-11-10T11:25:35.816Z,12.27
2022-11-10T11:28:11.889Z,10.73
2022-11-10T11:30:48.836Z,11.05
2022-11-10T11:33:36.382Z,7.45
2022-11-10T11:36:14.461Z,6.50
2022-11-10T11:38:53.234Z,8.57
2022-11-10T11:41:30.400Z,11.90
2022-11-10T11:44:33.709Z,6.57
2022-11-10T11:47:20.126Z,12.43
2022-11-10T11:50:02.362Z,12.40
2022-11-10T11:55:18.232Z,11.48
2022-11-10T11:57:56.046Z,10.00
2022-11-10T12:00:24.630Z,10.13
2022-11-10T12:03:25.509Z,12.25
2022-11-10T12:06:02.900Z,11.57
2022-11-10T12:08:37.437Z,10.38
2022-11-10T12:11:11.353Z,11.25
2022-11-10T12:13:48.411Z,11.38
2022-11-10T12:16:20.433Z,11.55
2022-11-10T12:18:54.018Z,10.60
2022-11-10T12:21:27.004Z,11.43
2022-11-10T12:24:10.479Z,10.65
2022-11-10T12:26:44.475Z,10.45
2022-11-10T12:29:19.691Z,11.27
2022-11-10T12:31:48.310Z,10.07
2022-11-10T12:34:30.286Z,12.18
2022-11-10T12:36:59.165Z,7.63
2022-11-10T12:39:38.830Z,10.70
2022-11-10T12:42:11.599Z,10.05
2022-11-10T12:44:44.318Z,13.40
2022-11-10T12:47:18.351Z,8.10
2022-11-10T12:49:53.787Z,11.98
2022-11-10T12:52:25.288Z,10.98
2022-11-10T12:54:55.313Z,14.25
2022-11-10T12:57:26.373Z,12.82
2022-11-10T12:59:57.207Z,11.43
2022-11-10T13:02:32.370Z,13.48
2022-11-10T13:05:13.041Z,12.85
2022-11-10T13:07:41.802Z,13.32
2022-11-10T13:10:26.606Z,12.48
2022-11-10T13:13:02.261Z,11.75
2022-11-10T13:15:47.944Z,12.57
2022-11-10T13:18:39.301Z,11.73
2022-11-10T13:21:07.668Z,12.63
2022-11-10T13:24:20.706Z,10.38
2022-11-10T13:26:51.529Z,13.05
2022-11-10T13:29:35.032Z,10.70
2022-11-10T13:34:50.377Z,14.00
2022-11-10T13:37:50.759Z,11.18
2022-11-10T13:40:29.658Z,12.77
2022-11-10T13:43:23.937Z,15.38
2022-11-10T13:46:02.162Z,10.13
2022-11-10T13:48:42.525Z,13.02
2022-11-10T13:51:17.897Z,11.73
2022-11-10T13:53:54.237Z,13.07
2022-11-10T13:56:36.473Z,14.65
2022-11-10T13:59:18.064Z,14.80
2022-11-10T14:01:46.504Z,14.68
2022-11-10T14:04:43.121Z,11.85
2022-11-10T14:07:16.412Z,13.48
2022-11-10T14:09:47.908Z,14.95
2022-11-10T14:12:24.008Z,16.33
2022-11-10T14:14:56.628Z,13.57
2022-11-10T14:17:28.204Z,15.90
2022-11-10T14:19:56.560Z,15.13
2022-11-10T14:22:29.096Z,15.18
2022-11-10T14:25:02.320Z,17.33
2022-11-10T14:27:35.805Z,15.38
2022-11-10T14:30:12.540Z,14.63
2022-11-10T14:32:40.841Z,16.35
2022-11-10T14:35:19.680Z,15.15
2022-11-10T14:37:47.852Z,12.95
2022-11-10T14:40:19.629Z,13.35
2022-11-10T14:42:49.324Z,13.68
2022-11-10T14:45:20.261Z,16.25
2022-11-10T14:47:54.187Z,12.57
2022-11-10T14:50:24.621Z,15.23
2022-11-10T14:52:55.559Z,12.63
2022-11-10T14:55:26.209Z,14.73
2022-11-10T14:58:00.607Z,19.08
2022-11-10T15:00:29.314Z,14.73
2022-11-10T15:02:59.204Z,16.30
2022-11-10T15:05:27.662Z,12.02
2022-11-10T15:07:57.428Z,15.48
2022-11-10T15:10:27.742Z,15.43
2022-11-10T15:13:06.373Z,17.80
2022-11-10T15:15:34.620Z,11.77
2022-11-10T15:18:02.821Z,16.20
2022-11-10T15:20:34.088Z,14.93
2022-11-10T15:23:03.605Z,16.42
2022-11-10T15:25:39.244Z,16.23
2022-11-10T15:28:18.405Z,14.43
2022-11-10T15:30:53.087Z,17.55
2022-11-10T15:33:27.860Z,15.63
2022-11-10T15:35:57.588Z,14.88
2022-11-10T15:38:31.517Z,16.50
2022-11-10T15:41:12.392Z,12.57
2022-11-10T15:43:42.210Z,17.20
2022-11-10T15:46:18.208Z,14.93
2022-11-10T15:48:48.467Z,14.43
2022-11-10T15:51:22.822Z,12.27
2022-11-10T15:53:54.812Z,12.32
2022-11-10T15:56:24.988Z,15.82
2022-11-10T15:58:59.215Z,15.55
2022-11-10T16:01:30.671Z,16.70
2022-11-10T16:03:59.383Z,17.25
2022-11-10T16:06:30.323Z,16.95
2022-11-10T16:08:58.671Z,13.25
2022-11-10T16:11:26.985Z,15.57
2022-11-10T16:13:56.859Z,16.45
2022-11-10T16:16:25.232Z,16.77
2022-11-10T16:18:53.833Z,16.30
2022-11-10T16:21:23.749Z,16.15
2022-11-10T16:23:52.501Z,15.23
2022-11-10T16:26:22.428Z,15.95
2022-11-10T16:28:51.653Z,16.58
2022-11-10T16:31:22.687Z,15.40
2022-11-10T16:33:51.548Z,15.05
2022-11-10T16:36:25.282Z,16.67
2022-11-10T16:38:54.341Z,16.75
2022-11-10T16:41:22.973Z,15.90
2022-11-10T16:43:51.159Z,14.52
2022-11-10T16:46:22.778Z,13.85
2022-11-10T16:48:52.166Z,16.58
2022-11-10T16:51:20.449Z,15.75
2022-11-10T16:53:49.042Z,14.43
2022-11-10T16:56:20.712Z,18.45
2022-11-10T16:58:49.033Z,21.10
2022-11-10T17:01:22.363Z,16.08
2022-11-10T17:03:52.017Z,16.05
2022-11-10T17:06:21.664Z,15.25
2022-11-10T17:08:50.360Z,15.85
2022-11-10T17:11:18.880Z,15.57
2022-11-10T17:13:47.082Z,15.05
2022-11-10T17:16:20.474Z,16.08
2022-11-10T17:21:19.668Z,16.67
2022-11-10T17:23:48.008Z,15.57
2022-11-10T17:26:18.095Z,16.02
2022-11-10T17:28:46.259Z,15.10
2022-11-10T17:31:15.921Z,15.30
2022-11-10T17:33:44.098Z,15.48
2022-11-10T17:36:17.892Z,16.40
2022-11-10T17:38:46.583Z,16.02
2022-11-10T17:41:16.791Z,17.05
2022-11-10T17:43:46.051Z,12.02
2022-11-10T17:46:15.174Z,17.52
2022-11-10T17:48:44.074Z,15.88
2022-11-10T17:51:15.485Z,15.85
2022-11-10T17:53:44.033Z,15.07
2022-11-10T17:56:12.167Z,17.20
2022-11-10T17:58:40.616Z,16.45
2022-11-10T18:01:17.137Z,16.25
2022-11-10T18:03:46.612Z,16.90
2022-11-10T18:06:17.017Z,15.55
2022-11-10T18:08:45.538Z,14.02
2022-11-10T18:11:15.911Z,17.45
2022-11-10T18:13:44.697Z,15.75
2022-11-10T18:16:15.043Z,15.68
2022-11-10T18:19:08.192Z,20.02
2022-11-10T18:21:37.858Z,15.30
2022-11-10T18:24:06.370Z,11.60
2022-11-10T18:26:34.658Z,15.77
2022-11-10T18:29:03.109Z,16.75
2022-11-10T18:31:31.380Z,16.80
2022-11-10T18:33:59.619Z,16.33
2022-11-10T18:36:27.754Z,15.40
2022-11-10T18:38:57.385Z,16.90
2022-11-10T18:41:42.845Z,16.73
2022-11-10T18:44:11.027Z,16.35
2022-11-10T18:46:39.430Z,16.15
2022-11-10T18:49:08.159Z,16.02
2022-11-10T18:51:36.493Z,15.52
2022-11-10T18:54:06.506Z,18.23
2022-11-10T18:56:34.874Z,17.13
2022-11-10T18:59:03.355Z,18.30
2022-11-10T19:01:31.694Z,16.73
2022-11-10T19:04:00.046Z,17.98
2022-11-10T19:06:28.219Z,16.20
2022-11-10T19:08:57.824Z,16.33
2022-11-10T19:11:27.713Z,18.00
2022-11-10T19:13:55.825Z,19.13
2022-11-10T19:16:24.021Z,17.80
2022-11-10T19:18:52.590Z,17.08
2022-11-10T19:21:22.740Z,16.80
2022-11-10T19:23:51.153Z,19.10
2022-11-10T19:26:22.902Z,18.08
2022-11-10T19:28:59.746Z,16.90
2022-11-10T19:31:28.792Z,20.08
2022-11-10T19:33:58.084Z,21.63
2022-11-10T19:36:27.586Z,37.85
2022-11-10T19:38:56.438Z,19.98
2022-11-10T19:41:26.484Z,17.13
2022-11-10T19:43:56.527Z,17.65
2022-11-10T19:46:27.644Z,18.25
2022-11-10T19:48:56.246Z,20.20
2022-11-10T19:51:25.849Z,20.23
2022-11-10T19:53:57.926Z,19.60
2022-11-10T19:56:31.433Z,18.02
2022-11-10T19:59:01.817Z,16.02
2022-11-10T20:01:32.417Z,17.70
2022-11-10T20:04:02.975Z,19.63
2022-11-10T20:06:31.297Z,19.23
2022-11-10T20:08:59.677Z,17.48
2022-11-10T20:11:28.230Z,19.13
2022-11-10T20:13:59.173Z,19.17
2022-11-10T20:16:28.815Z,16.20
2022-11-10T20:18:57.234Z,18.98
2022-11-10T20:21:25.496Z,18.65
2022-11-10T20:23:54.839Z,18.02
2022-11-10T20:26:24.319Z,19.35
2022-11-10T20:28:52.783Z,17.05
2022-11-10T20:31:23.849Z,19.13
2022-11-10T20:33:55.700Z,15.98
2022-11-10T20:36:26.214Z,20.33
2022-11-10T20:38:57.807Z,17.77
2022-11-10T20:41:29.283Z,18.73
2022-11-10T20:43:57.912Z,17.13
2022-11-10T20:46:53.369Z,18.52
2022-11-10T20:49:16.712Z,15.55
2022-11-10T20:51:45.015Z,17.17
2022-11-10T20:54:15.146Z,17.52
2022-11-10T20:56:43.500Z,16.85
2022-11-10T20:59:12.222Z,17.40
2022-11-10T21:01:40.649Z,17.73
2022-11-10T21:04:09.118Z,16.98
2022-11-10T21:06:38.789Z,19.27
2022-11-10T21:09:07.896Z,17.05
2022-11-10T21:11:53.530Z,17.73
2022-11-10T21:14:21.748Z,18.58
2022-11-10T21:16:49.896Z,18.10
2022-11-10T21:19:18.419Z,17.75
2022-11-10T21:21:47.996Z,16.73
2022-11-10T21:24:16.258Z,14.48
2022-11-10T21:26:44.589Z,16.65
2022-11-10T21:29:12.896Z,18.08
2022-11-10T21:31:41.948Z,17.38
2022-11-10T21:34:11.105Z,16.92
2022-11-10T21:36:39.526Z,17.75
2022-11-10T21:39:09.907Z,21.40
2022-11-10T21:41:38.335Z,17.55
2022-11-10T21:44:06.789Z,18.85
2022-11-10T21:46:35.003Z,18.20
2022-11-10T21:49:07.329Z,17.98
2022-11-10T21:51:36.135Z,16.75
2022-11-10T21:54:04.481Z,16.20
2022-11-10T21:56:34.051Z,18.42
2022-11-10T21:59:02.365Z,20.77
2022-11-10T22:01:32.460Z,18.92
2022-11-10T22:04:00.756Z,14.32
2022-11-10T22:06:49.153Z,17.67
2022-11-10T22:09:38.007Z,19.40
2022-11-10T22:12:27.651Z,16.58
2022-11-10T22:15:13.188Z,17.35
2022-11-10T22:17:58.760Z,18.02
2022-11-10T22:20:26.900Z,18.17
2022-11-10T22:22:55.207Z,18.90
2022-11-10T22:25:23.575Z,20.38
2022-11-10T22:27:53.181Z,15.15
2022-11-10T22:30:21.321Z,14.40
2022-11-10T22:32:49.665Z,16.23
2022-11-10T22:35:31.654Z,18.15
2022-11-10T22:38:04.887Z,12.07
2022-11-10T22:40:50.270Z,17.35
2022-11-10T22:43:37.435Z,16.42
2022-11-10T22:46:05.712Z,16.48
2022-11-10T22:48:34.034Z,19.60
2022-11-10T22:51:02.384Z,19.67
2022-11-10T22:53:31.315Z,19.25
2022-11-10T22:56:01.631Z,16.17
2022-11-10T22:58:31.338Z,17.25
2022-11-10T23:01:06.096Z,16.80
2022-11-10T23:03:34.892Z,19.10
2022-11-10T23:06:03.482Z,18.48
2022-11-10T23:08:32.170Z,18.77
2022-11-10T23:11:01.536Z,17.90
2022-11-10T23:13:31.449Z,19.52
2022-11-10T23:16:02.327Z,17.55
2022-11-10T23:18:30.802Z,18.65
2022-11-10T23:20:59.927Z,16.80
2022-11-10T23:23:28.384Z,17.92
2022-11-10T23:25:58.169Z,17.45
2022-11-10T23:28:28.149Z,15.95
2022-11-10T23:31:03.657Z,17.80
2022-11-10T23:33:33.191Z,19.42
2022-11-10T23:36:01.808Z,18.08
2022-11-10T23:38:31.600Z,19.35
2022-11-10T23:41:00.679Z,16.63
2022-11-10T23:43:29.326Z,16.13
2022-11-10T23:46:07.712Z,18.13
2022-11-10T23:48:36.339Z,19.20
2022-11-10T23:51:05.150Z,19.58
2022-11-10T23:53:35.326Z,18.00
2022-11-10T23:56:05.883Z,20.52
2022-11-10T23:58:34.372Z,17.17
